C2008 KNBG-KNBG
Flight info
| Callsign | C2008 |
|---|---|
| Flight time | N/A |
| Altitude | 5000 |
| Route | VFR SOUTH |
| Aircraft | C30J/M-VRDW/C |
Departure
| Time | 2026-05-07 02:09 |
|---|---|
| Airport | New Orleans NAS JRB/Alvin Callender Field (KNBG) |
Arrival
| Time | N/A |
|---|---|
| Airport | New Orleans NAS JRB/Alvin Callender Field (KNBG) |
| Time | Latitude | Longitude | Altitude | Speed | Heading |
|---|---|---|---|---|---|
| 2026-05-07 01:38 | 29.82060 | -90.02536 | 10 ft | 0 kts | 46° |
| 2026-05-07 01:59 | 29.82068 | -90.02524 | 11 ft | 1 kts | 68° |
| 2026-05-07 01:59 | 29.82056 | -90.02504 | 11 ft | 5 kts | 165° |
| 2026-05-07 02:00 | 29.81985 | -90.02560 | 10 ft | 20 kts | 230° |
| 2026-05-07 02:00 | 29.81908 | -90.02671 | 11 ft | 8 kts | 249° |
| 2026-05-07 02:00 | 29.81937 | -90.02729 | 10 ft | 9 kts | 323° |
| 2026-05-07 02:00 | 29.82026 | -90.02814 | 9 ft | 25 kts | 321° |
| 2026-05-07 02:01 | 29.82169 | -90.02949 | 12 ft | 28 kts | 320° |
| 2026-05-07 02:01 | 29.82314 | -90.03085 | 13 ft | 27 kts | 321° |
| 2026-05-07 02:01 | 29.82408 | -90.03165 | 15 ft | 4 kts | 356° |
| 2026-05-07 02:01 | 29.82482 | -90.03156 | 12 ft | 21 kts | 14° |
| 2026-05-07 02:02 | 29.82627 | -90.03089 | 9 ft | 11 kts | 46° |
| 2026-05-07 02:02 | 29.82700 | -90.03009 | 9 ft | 21 kts | 44° |
| 2026-05-07 02:02 | 29.82830 | -90.02865 | 6 ft | 29 kts | 44° |
| 2026-05-07 02:02 | 29.82981 | -90.02697 | 9 ft | 31 kts | 44° |
| 2026-05-07 02:03 | 29.83141 | -90.02517 | 12 ft | 33 kts | 44° |
| 2026-05-07 02:03 | 29.83310 | -90.02328 | 11 ft | 33 kts | 43° |
| 2026-05-07 02:03 | 29.83477 | -90.02142 | 8 ft | 34 kts | 44° |
| 2026-05-07 02:03 | 29.83649 | -90.01949 | 7 ft | 35 kts | 44° |
| 2026-05-07 02:04 | 29.83823 | -90.01754 | 11 ft | 35 kts | 44° |
| 2026-05-07 02:04 | 29.83997 | -90.01560 | 13 ft | 35 kts | 44° |
| 2026-05-07 02:04 | 29.84146 | -90.01394 | 10 ft | 21 kts | 43° |
| 2026-05-07 02:04 | 29.84218 | -90.01345 | 10 ft | 8 kts | 338° |
| 2026-05-07 02:05 | 29.84230 | -90.01376 | 10 ft | 4 kts | 259° |
| 2026-05-07 02:05 | 29.84221 | -90.01399 | 10 ft | 3 kts | 243° |
| 2026-05-07 02:05 | 29.84231 | -90.01440 | 11 ft | 10 kts | 313° |
| 2026-05-07 02:05 | 29.84247 | -90.01459 | 10 ft | 0 kts | 314° |
| 2026-05-07 02:07 | 29.84314 | -90.01543 | 9 ft | 20 kts | 310° |
| 2026-05-07 02:07 | 29.84347 | -90.01592 | 8 ft | 1 kts | 282° |
| 2026-05-07 02:08 | 29.84345 | -90.01595 | 7 ft | 0 kts | 229° |
| 2026-05-07 02:08 | 29.84341 | -90.01594 | 7 ft | 1 kts | 173° |
| 2026-05-07 02:08 | 29.84323 | -90.01580 | 8 ft | 8 kts | 145° |
| 2026-05-07 02:08 | 29.84282 | -90.01579 | 8 ft | 5 kts | 221° |
| 2026-05-07 02:09 | 29.84230 | -90.01638 | 10 ft | 31 kts | 224° |
| 2026-05-07 02:09 | 29.83826 | -90.02098 | 26 ft | 128 kts | 221° |
| 2026-05-07 02:09 | 29.83090 | -90.02887 | 356 ft | 156 kts | 225° |
| 2026-05-07 02:09 | 29.82273 | -90.03756 | 647 ft | 160 kts | 225° |
| 2026-05-07 02:10 | 29.81372 | -90.04520 | 986 ft | 163 kts | 199° |
| 2026-05-07 02:10 | 29.80196 | -90.04558 | 1178 ft | 174 kts | 182° |
| 2026-05-07 02:10 | 29.78973 | -90.04517 | 1446 ft | 177 kts | 182° |
| 2026-05-07 02:10 | 29.77756 | -90.04481 | 1710 ft | 172 kts | 182° |
| 2026-05-07 02:11 | 29.76573 | -90.04451 | 1948 ft | 168 kts | 182° |
| 2026-05-07 02:11 | 29.75410 | -90.04422 | 2166 ft | 167 kts | 181° |
| 2026-05-07 02:11 | 29.74249 | -90.04348 | 2387 ft | 167 kts | 180° |
| 2026-05-07 02:11 | 29.73095 | -90.04285 | 2598 ft | 166 kts | 181° |
| 2026-05-07 02:12 | 29.71939 | -90.04260 | 2811 ft | 166 kts | 183° |
| 2026-05-07 02:12 | 29.70784 | -90.04281 | 3027 ft | 166 kts | 185° |
| 2026-05-07 02:12 | 29.69630 | -90.04332 | 3235 ft | 166 kts | 186° |
| 2026-05-07 02:12 | 29.68481 | -90.04402 | 3434 ft | 166 kts | 187° |
| 2026-05-07 02:13 | 29.67315 | -90.04497 | 3545 ft | 172 kts | 188° |
| 2026-05-07 02:13 | 29.66102 | -90.04610 | 3562 ft | 178 kts | 188° |
| 2026-05-07 02:13 | 29.64844 | -90.04743 | 3560 ft | 185 kts | 188° |
| 2026-05-07 02:13 | 29.63546 | -90.04888 | 3561 ft | 189 kts | 188° |
| 2026-05-07 02:14 | 29.62228 | -90.05039 | 3557 ft | 191 kts | 189° |
| 2026-05-07 02:14 | 29.60920 | -90.05197 | 3557 ft | 192 kts | 188° |
| 2026-05-07 02:14 | 29.59585 | -90.05363 | 3551 ft | 193 kts | 195° |
| 2026-05-07 02:14 | 29.58391 | -90.06008 | 3560 ft | 189 kts | 216° |
| 2026-05-07 02:15 | 29.57365 | -90.06947 | 3560 ft | 188 kts | 225° |
| 2026-05-07 02:15 | 29.56447 | -90.08012 | 3557 ft | 188 kts | 229° |
| 2026-05-07 02:15 | 29.55552 | -90.09105 | 3555 ft | 188 kts | 229° |
| 2026-05-07 02:15 | 29.54659 | -90.10195 | 3556 ft | 188 kts | 229° |
| 2026-05-07 02:16 | 29.53764 | -90.11291 | 3556 ft | 188 kts | 229° |
| 2026-05-07 02:16 | 29.52870 | -90.12385 | 3557 ft | 188 kts | 229° |
| 2026-05-07 02:16 | 29.51980 | -90.13480 | 3557 ft | 187 kts | 230° |
| 2026-05-07 02:16 | 29.51157 | -90.14637 | 3558 ft | 187 kts | 234° |
| 2026-05-07 02:17 | 29.50365 | -90.15834 | 3507 ft | 190 kts | 235° |
| 2026-05-07 02:17 | 29.49549 | -90.17086 | 3090 ft | 195 kts | 235° |
| 2026-05-07 02:17 | 29.48788 | -90.18329 | 2587 ft | 186 kts | 243° |
| 2026-05-07 02:17 | 29.48304 | -90.19673 | 2102 ft | 180 kts | 252° |
| 2026-05-07 02:18 | 29.47912 | -90.21017 | 1666 ft | 174 kts | 253° |
| 2026-05-07 02:18 | 29.47560 | -90.22262 | 1538 ft | 154 kts | 253° |
| 2026-05-07 02:18 | 29.47251 | -90.23354 | 1525 ft | 134 kts | 253° |
| 2026-05-07 02:18 | 29.46982 | -90.24304 | 1528 ft | 117 kts | 254° |
| 2026-05-07 02:19 | 29.46747 | -90.25133 | 1526 ft | 102 kts | 254° |
| 2026-05-07 02:19 | 29.46492 | -90.25951 | 1348 ft | 111 kts | 250° |
| 2026-05-07 02:19 | 29.46196 | -90.26786 | 1193 ft | 121 kts | 250° |
| 2026-05-07 02:19 | 29.45759 | -90.27686 | 1304 ft | 137 kts | 225° |
| 2026-05-07 02:20 | 29.44811 | -90.28018 | 1372 ft | 155 kts | 180° |
| 2026-05-07 02:20 | 29.43734 | -90.27941 | 1589 ft | 153 kts | 179° |
| 2026-05-07 02:20 | 29.43062 | -90.27875 | 1794 ft | 152 kts | 177° |
| 2026-05-07 02:20 | 29.42035 | -90.27709 | 2099 ft | 147 kts | 174° |
| 2026-05-07 02:21 | 29.41037 | -90.27446 | 2388 ft | 148 kts | 166° |
| 2026-05-07 02:21 | 29.40050 | -90.27304 | 2665 ft | 141 kts | 189° |
| 2026-05-07 02:21 | 29.39064 | -90.27021 | 2935 ft | 155 kts | 156° |
| 2026-05-07 02:21 | 29.38111 | -90.26342 | 3242 ft | 170 kts | 148° |
| 2026-05-07 02:22 | 29.37099 | -90.25497 | 3542 ft | 188 kts | 146° |
| 2026-05-07 02:22 | 29.36021 | -90.24559 | 3830 ft | 200 kts | 145° |
| 2026-05-07 02:22 | 29.34875 | -90.23562 | 4002 ft | 214 kts | 145° |
| 2026-05-07 02:22 | 29.33650 | -90.22497 | 4058 ft | 227 kts | 145° |
| 2026-05-07 02:23 | 29.32365 | -90.21379 | 4068 ft | 236 kts | 145° |
| 2026-05-07 02:23 | 29.31044 | -90.20238 | 4047 ft | 241 kts | 145° |
| 2026-05-07 02:23 | 29.29682 | -90.19066 | 4057 ft | 250 kts | 145° |
| 2026-05-07 02:23 | 29.28237 | -90.17827 | 4066 ft | 267 kts | 145° |
| 2026-05-07 02:24 | 29.26709 | -90.16520 | 4063 ft | 280 kts | 145° |
| 2026-05-07 02:24 | 29.25118 | -90.15165 | 4058 ft | 289 kts | 145° |
| 2026-05-07 02:24 | 29.23495 | -90.13780 | 4056 ft | 293 kts | 144° |
| 2026-05-07 02:24 | 29.21872 | -90.12341 | 4055 ft | 296 kts | 147° |
| 2026-05-07 02:25 | 29.20010 | -90.11517 | 4047 ft | 280 kts | 176° |
| 2026-05-07 02:25 | 29.18183 | -90.11889 | 4050 ft | 261 kts | 209° |
| 2026-05-07 02:25 | 29.16947 | -90.13245 | 4051 ft | 246 kts | 243° |
| 2026-05-07 02:25 | 29.16648 | -90.15109 | 4052 ft | 240 kts | 278° |
| 2026-05-07 02:26 | 29.17373 | -90.16776 | 4053 ft | 237 kts | 314° |
| 2026-05-07 02:26 | 29.18833 | -90.17601 | 4053 ft | 240 kts | 351° |
| 2026-05-07 02:26 | 29.20460 | -90.17249 | 4055 ft | 245 kts | 27° |
| 2026-05-07 02:26 | 29.21608 | -90.15846 | 4052 ft | 247 kts | 65° |
| 2026-05-07 02:27 | 29.21802 | -90.13931 | 4054 ft | 246 kts | 102° |
| 2026-05-07 02:27 | 29.20985 | -90.12260 | 4055 ft | 242 kts | 140° |
| 2026-05-07 02:27 | 29.19486 | -90.11498 | 4054 ft | 236 kts | 178° |
| 2026-05-07 02:27 | 29.17943 | -90.11924 | 4055 ft | 230 kts | 216° |
| 2026-05-07 02:28 | 29.16994 | -90.13328 | 4054 ft | 226 kts | 253° |
| 2026-05-07 02:28 | 29.17039 | -90.15085 | 4060 ft | 226 kts | 291° |
| 2026-05-07 02:28 | 29.18061 | -90.16428 | 4059 ft | 231 kts | 329° |
| 2026-05-07 02:28 | 29.19630 | -90.16757 | 4053 ft | 236 kts | 7° |
| 2026-05-07 02:29 | 29.21090 | -90.15903 | 4061 ft | 243 kts | 45° |
| 2026-05-07 02:29 | 29.21837 | -90.14189 | 4053 ft | 247 kts | 82° |
| 2026-05-07 02:29 | 29.21552 | -90.12306 | 4056 ft | 242 kts | 120° |
| 2026-05-07 02:29 | 29.20505 | -90.10819 | 4056 ft | 241 kts | 124° |
| 2026-05-07 02:30 | 29.19842 | -90.09053 | 4063 ft | 244 kts | 107° |
| 2026-05-07 02:30 | 29.19438 | -90.07163 | 4062 ft | 246 kts | 103° |
| 2026-05-07 02:30 | 29.19225 | -90.05234 | 4050 ft | 245 kts | 84° |
| 2026-05-07 02:30 | 29.19820 | -90.03433 | 4057 ft | 244 kts | 50° |
| 2026-05-07 02:31 | 29.21174 | -90.02354 | 4058 ft | 238 kts | 13° |
| 2026-05-07 02:31 | 29.22772 | -90.02423 | 4056 ft | 230 kts | 335° |
| 2026-05-07 02:31 | 29.23956 | -90.03570 | 4059 ft | 224 kts | 301° |
| 2026-05-07 02:31 | 29.24676 | -90.05155 | 4058 ft | 225 kts | 294° |
| 2026-05-07 02:32 | 29.25357 | -90.06769 | 4055 ft | 226 kts | 295° |
| 2026-05-07 02:32 | 29.26082 | -90.08373 | 4057 ft | 227 kts | 297° |
| 2026-05-07 02:32 | 29.26839 | -90.09963 | 4056 ft | 228 kts | 297° |
| 2026-05-07 02:32 | 29.27616 | -90.11544 | 4056 ft | 228 kts | 298° |
| 2026-05-07 02:33 | 29.28404 | -90.13117 | 4057 ft | 227 kts | 299° |
| 2026-05-07 02:33 | 29.29200 | -90.14684 | 4055 ft | 228 kts | 299° |
| 2026-05-07 02:33 | 29.30001 | -90.16249 | 4057 ft | 228 kts | 299° |
| 2026-05-07 02:33 | 29.30806 | -90.17813 | 4056 ft | 228 kts | 299° |
| 2026-05-07 02:34 | 29.31612 | -90.19376 | 4055 ft | 227 kts | 299° |
| 2026-05-07 02:34 | 29.32421 | -90.20941 | 4056 ft | 228 kts | 299° |
| 2026-05-07 02:34 | 29.33231 | -90.22507 | 4056 ft | 229 kts | 299° |
| 2026-05-07 02:34 | 29.34057 | -90.24110 | 4061 ft | 240 kts | 299° |
| 2026-05-07 02:35 | 29.34917 | -90.25784 | 4060 ft | 247 kts | 299° |
| 2026-05-07 02:35 | 29.35804 | -90.27505 | 4059 ft | 253 kts | 300° |
| 2026-05-07 02:35 | 29.36708 | -90.29252 | 4058 ft | 257 kts | 300° |
| 2026-05-07 02:35 | 29.37619 | -90.31016 | 4056 ft | 258 kts | 300° |
| 2026-05-07 02:36 | 29.38535 | -90.32791 | 4056 ft | 259 kts | 300° |
| 2026-05-07 02:36 | 29.39453 | -90.34576 | 4057 ft | 261 kts | 299° |
| 2026-05-07 02:36 | 29.40362 | -90.36345 | 4056 ft | 261 kts | 300° |